createdAt,value
2022-11-14T00:00:20.142Z,17.90
2022-11-14T00:03:12.215Z,19.33
2022-11-14T00:06:05.857Z,17.10
2022-11-14T00:08:57.069Z,13.70
2022-11-14T00:11:48.096Z,18.88
2022-11-14T00:14:39.758Z,16.70
2022-11-14T00:17:30.956Z,15.27
2022-11-14T00:20:22.146Z,9.77
2022-11-14T00:23:13.221Z,12.60
2022-11-14T00:26:04.466Z,13.50
2022-11-14T00:28:55.753Z,8.77
2022-11-14T00:31:47.555Z,7.47
2022-11-14T00:34:38.353Z,12.98
2022-11-14T00:37:29.439Z,9.20
2022-11-14T00:40:20.478Z,10.77
2022-11-14T00:43:11.592Z,12.18
2022-11-14T00:46:02.609Z,10.82
2022-11-14T00:48:54.147Z,8.82
2022-11-14T00:51:45.303Z,7.18
2022-11-14T00:54:36.149Z,6.30
2022-11-14T00:57:27.196Z,9.55
2022-11-14T01:00:18.329Z,5.60
2022-11-14T01:03:09.020Z,11.00
2022-11-14T01:06:04.555Z,9.15
2022-11-14T01:08:55.652Z,6.57
2022-11-14T01:11:46.523Z,13.02
2022-11-14T01:14:37.385Z,9.43
2022-11-14T01:17:28.359Z,12.70
2022-11-14T01:20:20.092Z,9.57
2022-11-14T01:23:13.939Z,8.05
2022-11-14T01:26:07.657Z,9.63
2022-11-14T01:28:58.370Z,16.08
2022-11-14T01:31:49.231Z,10.43
2022-11-14T01:34:40.149Z,10.43
2022-11-14T01:37:31.102Z,12.38
2022-11-14T01:40:23.048Z,11.23
2022-11-14T01:43:35.465Z,8.43
2022-11-14T01:46:30.498Z,13.05
2022-11-14T01:49:25.308Z,7.07
2022-11-14T01:52:19.631Z,10.38
2022-11-14T01:55:10.994Z,14.80
2022-11-14T01:58:02.452Z,11.65
2022-11-14T02:00:53.457Z,10.32
2022-11-14T02:03:49.131Z,9.30
2022-11-14T02:06:40.529Z,11.32
2022-11-14T02:09:35.162Z,12.60
2022-11-14T02:12:26.155Z,16.35
2022-11-14T02:15:17.881Z,6.50
2022-11-14T02:18:08.875Z,6.45
2022-11-14T02:21:00.414Z,8.85
2022-11-14T02:23:51.485Z,14.52
2022-11-14T02:26:42.940Z,18.55
2022-11-14T02:29:35.230Z,20.42
2022-11-14T02:32:26.094Z,13.93
2022-11-14T02:35:17.195Z,12.05
2022-11-14T02:38:09.134Z,9.75
2022-11-14T02:41:00.107Z,10.68
2022-11-14T02:43:50.998Z,7.80
2022-11-14T02:46:42.108Z,8.68
2022-11-14T02:49:33.090Z,9.95
2022-11-14T02:52:24.022Z,11.27
2022-11-14T02:55:16.023Z,10.15
2022-11-14T02:58:07.303Z,15.80
2022-11-14T03:01:19.703Z,9.20
2022-11-14T03:04:10.174Z,7.75
2022-11-14T03:07:00.868Z,8.40
2022-11-14T03:09:51.847Z,8.77
2022-11-14T03:12:43.773Z,7.22
2022-11-14T03:15:37.178Z,7.50
2022-11-14T03:18:28.656Z,9.77
2022-11-14T03:21:21.821Z,8.00
2022-11-14T03:24:12.606Z,8.70
2022-11-14T03:27:03.679Z,6.93
2022-11-14T03:29:55.295Z,5.20
2022-11-14T03:32:46.041Z,5.45
2022-11-14T03:35:41.489Z,9.40
2022-11-14T03:38:33.366Z,10.48
2022-11-14T03:41:24.453Z,7.93
2022-11-14T03:44:15.403Z,12.57
2022-11-14T03:47:07.235Z,12.15
2022-11-14T03:49:58.415Z,11.10
2022-11-14T03:52:49.910Z,8.48
2022-11-14T03:55:43.011Z,17.65
2022-11-14T03:58:33.626Z,19.77
2022-11-14T04:01:24.788Z,20.60
2022-11-14T04:04:16.397Z,7.78
2022-11-14T04:07:07.443Z,11.77
2022-11-14T04:09:58.397Z,15.85
2022-11-14T04:12:50.753Z,15.23
2022-11-14T04:15:41.610Z,16.17
2022-11-14T04:18:32.890Z,15.10
2022-11-14T04:21:24.822Z,10.63
2022-11-14T04:24:15.466Z,9.43
2022-11-14T04:27:06.369Z,9.93
2022-11-14T04:29:57.293Z,6.88
2022-11-14T04:32:48.531Z,7.07
2022-11-14T04:35:39.774Z,8.63
2022-11-14T04:38:31.731Z,11.88
2022-11-14T04:41:23.115Z,13.95
2022-11-14T04:44:13.982Z,13.82
2022-11-14T04:47:05.092Z,10.85
2022-11-14T04:49:56.117Z,15.13
2022-11-14T04:52:47.150Z,12.13
2022-11-14T04:55:39.399Z,7.40
2022-11-14T04:58:30.344Z,7.13
2022-11-14T05:01:21.731Z,10.48
2022-11-14T05:04:12.686Z,11.57
2022-11-14T05:07:04.004Z,11.18
2022-11-14T05:09:55.347Z,15.85
2022-11-14T05:12:47.078Z,13.23
2022-11-14T05:15:38.095Z,10.70
2022-11-14T05:18:29.517Z,18.63
2022-11-14T05:21:20.717Z,13.88
2022-11-14T05:24:11.462Z,16.60
2022-11-14T05:27:02.576Z,10.00
2022-11-14T05:29:54.689Z,14.57
2022-11-14T05:32:45.536Z,16.35
2022-11-14T05:35:36.405Z,13.75
2022-11-14T05:38:27.474Z,8.48
2022-11-14T05:41:19.789Z,11.55
2022-11-14T05:44:10.814Z,7.32
2022-11-14T05:47:02.395Z,13.30
2022-11-14T05:49:53.467Z,14.32
2022-11-14T05:52:44.453Z,13.43
2022-11-14T05:55:35.379Z,14.38
2022-11-14T05:58:26.617Z,13.00
2022-11-14T06:01:19.354Z,10.88
2022-11-14T06:04:13.694Z,10.85
2022-11-14T06:07:04.783Z,10.50
2022-11-14T06:09:55.788Z,10.52
2022-11-14T06:12:47.352Z,12.02
2022-11-14T06:15:38.112Z,16.60
2022-11-14T06:18:31.105Z,17.00
2022-11-14T06:21:24.592Z,12.27
2022-11-14T06:24:15.871Z,18.15
2022-11-14T06:27:06.668Z,18.33
2022-11-14T06:29:57.689Z,12.75
2022-11-14T06:32:48.580Z,20.65
2022-11-14T06:35:39.584Z,13.98
2022-11-14T06:38:32.533Z,14.27
2022-11-14T06:41:23.994Z,17.60
2022-11-14T06:44:15.060Z,15.45
2022-11-14T06:47:06.041Z,14.63
2022-11-14T06:49:57.104Z,14.95
2022-11-14T06:52:48.294Z,15.98
2022-11-14T06:55:40.069Z,15.80
2022-11-14T06:58:33.530Z,19.35
2022-11-14T07:01:25.671Z,16.20
2022-11-14T07:04:16.668Z,18.35
2022-11-14T07:07:07.630Z,11.40
2022-11-14T07:09:58.715Z,13.88
2022-11-14T07:12:50.398Z,10.88
2022-11-14T07:15:49.578Z,13.50
2022-11-14T07:18:40.694Z,13.18
2022-11-14T07:21:33.644Z,11.13
2022-11-14T07:24:24.492Z,12.52
2022-11-14T07:27:15.464Z,13.25
2022-11-14T07:30:08.258Z,14.07
2022-11-14T07:32:59.781Z,16.85
2022-11-14T07:35:50.871Z,16.80
2022-11-14T07:38:41.886Z,17.95
2022-11-14T07:41:32.822Z,21.58
2022-11-14T07:44:23.728Z,18.65
2022-11-14T07:47:15.414Z,18.52
2022-11-14T07:50:07.622Z,16.65
2022-11-14T07:52:58.865Z,20.05
2022-11-14T07:55:50.024Z,19.67
2022-11-14T07:58:41.369Z,17.13
2022-11-14T08:01:32.670Z,20.67
2022-11-14T08:04:25.408Z,18.63
2022-11-14T08:07:16.610Z,13.32
2022-11-14T08:10:10.685Z,15.57
2022-11-14T08:13:30.277Z,14.60
2022-11-14T08:16:14.817Z,13.93
2022-11-14T08:19:06.240Z,19.67
2022-11-14T08:21:57.892Z,14.55
2022-11-14T08:24:48.578Z,19.08
2022-11-14T08:27:39.496Z,27.48
2022-11-14T08:30:30.542Z,25.25
2022-11-14T08:33:21.455Z,22.40
2022-11-14T08:36:12.570Z,29.73
2022-11-14T08:39:04.429Z,26.33
2022-11-14T08:41:55.511Z,33.65
2022-11-14T08:44:51.701Z,32.95
2022-11-14T08:47:42.773Z,23.05
2022-11-14T08:50:33.977Z,24.48
2022-11-14T08:53:24.994Z,18.65
2022-11-14T08:56:17.029Z,21.73
2022-11-14T08:59:08.257Z,17.83
2022-11-14T09:01:59.611Z,16.98
2022-11-14T09:04:50.776Z,19.85
2022-11-14T09:07:42.027Z,16.85
2022-11-14T09:10:33.528Z,16.40
2022-11-14T09:13:27.036Z,18.17
2022-11-14T09:16:18.365Z,17.05
2022-11-14T09:19:09.573Z,13.90
2022-11-14T09:22:00.653Z,21.33
2022-11-14T09:24:52.167Z,19.58
2022-11-14T09:27:43.352Z,22.02
2022-11-14T09:30:36.552Z,23.20
2022-11-14T09:33:27.744Z,30.63
2022-11-14T09:36:19.259Z,18.67
2022-11-14T09:39:10.275Z,25.13
2022-11-14T09:42:17.324Z,29.05
2022-11-14T09:45:12.010Z,24.63
2022-11-14T09:48:07.528Z,28.20
2022-11-14T09:51:07.754Z,21.90
2022-11-14T09:54:06.715Z,20.77
2022-11-14T09:56:57.858Z,22.48
2022-11-14T09:59:49.579Z,15.73
2022-11-14T10:02:53.998Z,17.48
2022-11-14T10:06:04.855Z,23.52
2022-11-14T10:09:21.511Z,28.30
2022-11-14T10:12:17.667Z,28.10
2022-11-14T10:15:16.456Z,30.85
2022-11-14T10:18:32.980Z,26.80
2022-11-14T10:21:46.521Z,24.98
2022-11-14T10:24:51.317Z,31.40
2022-11-14T10:27:55.342Z,26.58
2022-11-14T10:30:55.982Z,19.95
2022-11-14T10:33:54.046Z,13.10
2022-11-14T10:36:59.357Z,14.98
2022-11-14T10:39:52.456Z,8.13
2022-11-14T10:42:46.955Z,16.52
2022-11-14T10:45:44.363Z,13.75
2022-11-14T10:48:38.369Z,11.50
2022-11-14T10:51:35.522Z,21.42
2022-11-14T10:54:34.709Z,23.20
2022-11-14T10:57:32.364Z,32.08
2022-11-14T11:00:23.294Z,24.27
2022-11-14T11:03:14.376Z,29.40
2022-11-14T11:06:05.683Z,29.20
2022-11-14T11:09:15.157Z,37.05
2022-11-14T11:12:08.340Z,34.30
2022-11-14T11:15:14.898Z,33.95
2022-11-14T11:18:25.382Z,34.13
2022-11-14T11:21:18.146Z,31.20
2022-11-14T11:24:09.621Z,31.58
2022-11-14T11:27:19.972Z,35.97
2022-11-14T11:30:22.929Z,22.90
2022-11-14T11:33:22.844Z,29.92
2022-11-14T11:36:17.904Z,28.75
2022-11-14T11:39:19.618Z,30.65
2022-11-14T11:42:18.781Z,27.98
2022-11-14T11:45:16.859Z,33.20
2022-11-14T11:48:16.240Z,37.92
2022-11-14T11:51:15.633Z,29.30
2022-11-14T11:54:15.572Z,30.13
2022-11-14T11:57:21.237Z,37.83
2022-11-14T12:00:17.698Z,46.38
2022-11-14T12:03:13.425Z,38.28
2022-11-14T12:06:13.024Z,44.58
2022-11-14T12:09:14.514Z,36.22
2022-11-14T12:12:12.750Z,41.22
2022-11-14T12:15:17.617Z,36.30
2022-11-14T12:18:35.803Z,46.17
2022-11-14T12:21:41.240Z,33.22
2022-11-14T12:25:00.707Z,41.78
2022-11-14T12:28:09.956Z,39.17
2022-11-14T12:31:04.230Z,43.20
2022-11-14T12:34:01.279Z,36.47
2022-11-14T12:36:52.629Z,36.13
2022-11-14T12:39:56.379Z,38.15
2022-11-14T12:42:48.376Z,37.15
2022-11-14T12:46:00.259Z,37.13
2022-11-14T12:48:51.027Z,34.17
2022-11-14T12:51:51.081Z,34.00
2022-11-14T12:54:43.799Z,35.53
2022-11-14T12:57:50.051Z,35.03
2022-11-14T13:01:03.351Z,32.33
2022-11-14T13:04:17.878Z,41.85
2022-11-14T13:07:34.095Z,37.75
2022-11-14T13:10:30.225Z,36.25
2022-11-14T13:13:39.851Z,31.48
2022-11-14T13:20:04.712Z,22.63
2022-11-14T13:22:56.638Z,24.13
2022-11-14T13:25:47.923Z,30.35
2022-11-14T13:28:47.416Z,22.83
2022-11-14T13:34:49.591Z,27.92
2022-11-14T13:38:12.619Z,34.42
2022-11-14T13:41:24.177Z,27.98
2022-11-14T13:44:47.451Z,28.85
2022-11-14T13:48:05.990Z,28.88
2022-11-14T13:51:15.543Z,31.92
2022-11-14T13:54:17.917Z,30.88
2022-11-14T13:57:20.186Z,23.00
2022-11-14T14:00:19.604Z,25.92
2022-11-14T14:03:23.108Z,19.65
2022-11-14T14:06:35.073Z,24.00
2022-11-14T14:09:32.547Z,25.48
2022-11-14T14:12:50.348Z,19.50
2022-11-14T14:15:49.945Z,20.48
2022-11-14T14:21:45.175Z,21.10
2022-11-14T14:24:51.228Z,17.52
2022-11-14T14:27:54.690Z,13.15
2022-11-14T14:31:11.879Z,11.35
2022-11-14T14:34:03.463Z,12.73
2022-11-14T14:36:56.366Z,14.65
2022-11-14T14:39:58.999Z,22.38
2022-11-14T14:42:51.478Z,28.65
2022-11-14T14:45:47.997Z,36.13
2022-11-14T14:48:41.826Z,47.58
2022-11-14T14:51:34.675Z,57.95
2022-11-14T14:54:28.735Z,49.05
2022-11-14T14:57:23.348Z,44.70
2022-11-14T15:00:20.136Z,46.08
2022-11-14T15:03:11.163Z,47.50
2022-11-14T15:06:04.571Z,45.28
2022-11-14T15:08:56.555Z,49.45
2022-11-14T15:11:51.810Z,45.75
2022-11-14T15:14:44.518Z,46.17
2022-11-14T15:17:36.081Z,41.28
2022-11-14T15:20:28.977Z,42.78
2022-11-14T15:23:20.784Z,49.63
2022-11-14T15:26:15.977Z,50.42
2022-11-14T15:29:17.325Z,50.38
2022-11-14T15:32:19.260Z,51.30
2022-11-14T15:35:25.459Z,46.20
2022-11-14T15:38:54.226Z,50.60
2022-11-14T15:41:32.966Z,43.10
2022-11-14T15:44:30.637Z,44.20
2022-11-14T15:47:24.853Z,45.60
2022-11-14T15:50:26.144Z,50.70
2022-11-14T15:53:22.824Z,46.83
2022-11-14T15:56:14.044Z,41.47
2022-11-14T15:59:05.332Z,49.35
2022-11-14T16:01:59.522Z,51.60
2022-11-14T16:04:52.667Z,51.20
2022-11-14T16:07:43.528Z,58.95
2022-11-14T16:10:34.579Z,49.08
2022-11-14T16:13:25.630Z,59.75
2022-11-14T16:16:16.653Z,57.03
2022-11-14T16:19:08.355Z,62.78
2022-11-14T16:22:02.033Z,54.45
2022-11-14T16:24:53.096Z,50.15
2022-11-14T16:27:43.942Z,63.38
2022-11-14T16:30:35.077Z,60.08
2022-11-14T16:33:26.219Z,66.05
2022-11-14T16:36:21.244Z,65.03
2022-11-14T16:39:13.474Z,61.20
2022-11-14T16:42:04.702Z,50.78
2022-11-14T16:45:00.304Z,58.05
2022-11-14T16:47:51.842Z,61.47
2022-11-14T16:50:43.030Z,61.92
2022-11-14T16:53:34.093Z,64.47
2022-11-14T16:56:25.877Z,53.47
2022-11-14T16:59:17.180Z,55.63
2022-11-14T17:02:13.538Z,55.33
2022-11-14T17:05:05.052Z,65.05
2022-11-14T17:07:56.152Z,53.80
2022-11-14T17:10:47.105Z,56.67
2022-11-14T17:13:39.186Z,59.83
2022-11-14T17:16:30.114Z,64.85
2022-11-14T17:19:21.406Z,72.70
2022-11-14T17:22:12.618Z,67.25
2022-11-14T17:25:03.674Z,68.55
2022-11-14T17:27:54.318Z,69.22
2022-11-14T17:30:46.057Z,62.83
2022-11-14T17:33:37.658Z,60.55
2022-11-14T17:36:30.601Z,72.90
2022-11-14T17:39:21.919Z,65.80
2022-11-14T17:42:13.117Z,61.20
2022-11-14T17:45:04.758Z,52.45
2022-11-14T17:47:56.522Z,51.72
2022-11-14T17:50:47.284Z,58.45
2022-11-14T17:53:38.804Z,96.57
2022-11-14T17:56:29.673Z,65.38
2022-11-14T17:59:21.115Z,92.50
2022-11-14T18:02:13.585Z,78.57
2022-11-14T18:05:06.679Z,96.15
2022-11-14T18:07:57.690Z,96.38
2022-11-14T18:10:48.746Z,94.38
2022-11-14T18:13:40.727Z,104.75
2022-11-14T18:16:50.825Z,115.10
2022-11-14T18:19:42.498Z,90.28
2022-11-14T18:22:34.294Z,149.90
2022-11-14T18:25:25.375Z,159.68
2022-11-14T18:28:16.400Z,131.88
2022-11-14T18:31:09.975Z,105.95
2022-11-14T18:34:02.210Z,106.35
2022-11-14T18:36:53.359Z,70.15
2022-11-14T18:39:45.036Z,70.47
2022-11-14T18:42:35.876Z,45.60
2022-11-14T18:45:26.699Z,56.03
2022-11-14T18:48:17.634Z,104.28
2022-11-14T18:51:11.710Z,95.82
2022-11-14T18:54:02.692Z,112.00
2022-11-14T18:56:54.250Z,118.32
2022-11-14T18:59:44.950Z,111.07
2022-11-14T19:02:36.465Z,125.97
2022-11-14T19:05:27.505Z,136.38
2022-11-14T19:08:18.583Z,177.70
2022-11-14T19:11:32.311Z,201.52
2022-11-14T19:14:23.855Z,236.95
2022-11-14T19:17:18.042Z,249.70
2022-11-14T19:20:14.406Z,269.08
2022-11-14T19:23:05.693Z,268.35
2022-11-14T19:25:59.332Z,262.50
2022-11-14T19:28:50.327Z,225.13
2022-11-14T19:31:42.910Z,214.00
2022-11-14T19:34:33.571Z,235.90
2022-11-14T19:37:24.616Z,220.82
2022-11-14T19:40:15.545Z,225.20
2022-11-14T19:43:08.374Z,200.75
2022-11-14T19:46:02.115Z,186.52
2022-11-14T19:48:55.961Z,160.90
2022-11-14T19:51:46.755Z,169.48
2022-11-14T19:54:37.920Z,162.30
2022-11-14T19:57:30.460Z,163.05
2022-11-14T20:00:24.159Z,146.63
2022-11-14T20:03:14.783Z,144.20
2022-11-14T20:06:14.181Z,120.45
2022-11-14T20:09:07.218Z,111.68
2022-11-14T20:11:58.285Z,123.25
2022-11-14T20:14:49.381Z,94.47
2022-11-14T20:17:40.537Z,107.80
2022-11-14T20:20:31.510Z,89.65
2022-11-14T20:23:23.331Z,91.43
2022-11-14T20:26:15.486Z,66.43
2022-11-14T20:29:07.189Z,64.10
2022-11-14T20:31:58.375Z,56.75
2022-11-14T20:34:49.407Z,66.47
2022-11-14T20:37:40.454Z,55.42
2022-11-14T20:40:33.141Z,54.92
2022-11-14T20:43:24.586Z,57.85
2022-11-14T20:46:17.225Z,55.03
2022-11-14T20:49:08.835Z,61.13
2022-11-14T20:52:01.083Z,52.13
2022-11-14T20:54:51.987Z,87.38
2022-11-14T20:57:43.846Z,81.45
2022-11-14T21:00:35.309Z,70.50
2022-11-14T21:03:24.427Z,87.20
2022-11-14T21:06:16.446Z,128.13
2022-11-14T21:09:08.961Z,167.05
2022-11-14T21:11:59.914Z,157.73
2022-11-14T21:14:51.464Z,214.75
2022-11-14T21:17:42.066Z,191.93
2022-11-14T21:20:32.990Z,144.43
2022-11-14T21:23:23.991Z,113.28
2022-11-14T21:26:16.442Z,89.68
2022-11-14T21:29:11.446Z,53.55
2022-11-14T21:32:03.229Z,62.22
2022-11-14T21:34:54.144Z,54.78
2022-11-14T21:37:44.984Z,65.95
2022-11-14T21:40:35.882Z,65.00
2022-11-14T21:43:26.531Z,60.13
2022-11-14T21:46:17.556Z,70.95
2022-11-14T21:49:09.722Z,81.70
2022-11-14T21:52:00.649Z,117.68
2022-11-14T21:54:51.506Z,112.13
2022-11-14T21:57:42.608Z,116.72
2022-11-14T22:00:33.515Z,119.68
2022-11-14T22:03:42.802Z,105.68
2022-11-14T22:06:34.616Z,98.03
2022-11-14T22:09:26.222Z,94.75
2022-11-14T22:12:17.553Z,70.97
2022-11-14T22:15:09.302Z,57.08
2022-11-14T22:18:00.329Z,55.20
2022-11-14T22:20:54.917Z,76.93
2022-11-14T22:23:46.672Z,88.05
2022-11-14T22:26:39.269Z,82.45
2022-11-14T22:29:30.306Z,73.10
2022-11-14T22:32:21.277Z,75.80
2022-11-14T22:35:12.423Z,75.53
2022-11-14T22:38:03.334Z,63.88
2022-11-14T22:40:56.194Z,87.43
2022-11-14T22:43:47.319Z,90.82
2022-11-14T22:46:38.395Z,122.75
2022-11-14T22:49:29.309Z,91.13
2022-11-14T22:52:20.210Z,83.00
2022-11-14T22:55:17.723Z,87.25
2022-11-14T22:58:09.697Z,80.30
2022-11-14T23:01:01.745Z,68.68
2022-11-14T23:03:54.563Z,53.58
2022-11-14T23:06:45.677Z,70.00
2022-11-14T23:09:36.506Z,70.72
2022-11-14T23:12:27.574Z,70.93
2022-11-14T23:15:19.293Z,72.20
2022-11-14T23:18:10.202Z,59.67
2022-11-14T23:21:04.086Z,44.05
2022-11-14T23:23:56.587Z,49.03
2022-11-14T23:26:47.632Z,61.40
2022-11-14T23:29:38.362Z,52.53
2022-11-14T23:32:30.413Z,61.55
2022-11-14T23:35:21.414Z,49.53
2022-11-14T23:38:13.003Z,56.08
2022-11-14T23:41:03.990Z,56.10
2022-11-14T23:43:54.981Z,49.47
2022-11-14T23:46:46.062Z,51.17
2022-11-14T23:49:37.769Z,55.33
2022-11-14T23:52:28.547Z,48.25
2022-11-14T23:55:19.676Z,55.03
2022-11-14T23:58:10.766Z,49.20
